createdAt,value
2018-08-20T00:00:47.302Z,1.33
2018-08-20T00:03:51.495Z,1.20
2018-08-20T00:06:57.568Z,1.40
2018-08-20T00:10:01.458Z,1.40
2018-08-20T00:13:05.342Z,1.23
2018-08-20T00:16:09.809Z,1.40
2018-08-20T00:19:14.161Z,1.80
2018-08-20T00:22:18.385Z,1.20
2018-08-20T00:25:22.270Z,1.63
2018-08-20T00:28:26.611Z,2.07
2018-08-20T00:31:30.495Z,1.77
2018-08-20T00:34:34.745Z,1.37
2018-08-20T00:37:38.970Z,2.13
2018-08-20T00:40:43.185Z,0.83
2018-08-20T00:43:47.651Z,1.47
2018-08-20T00:46:51.527Z,1.20
2018-08-20T00:49:55.409Z,1.63
2018-08-20T00:52:59.293Z,1.67
2018-08-20T00:56:03.181Z,1.40
2018-08-20T00:59:07.072Z,1.20
2018-08-20T01:02:10.952Z,1.07
2018-08-20T01:05:15.022Z,0.97
2018-08-20T01:08:18.915Z,1.33
2018-08-20T01:11:23.135Z,1.23
2018-08-20T01:14:27.244Z,1.40
2018-08-20T01:17:31.127Z,1.47
2018-08-20T01:20:35.667Z,1.63
2018-08-20T01:23:39.569Z,1.73
2018-08-20T01:26:43.452Z,1.30
2018-08-20T01:29:47.664Z,1.30
2018-08-20T01:32:55.725Z,1.00
2018-08-20T01:35:59.846Z,1.13
2018-08-20T01:39:05.425Z,0.90
2018-08-20T01:42:09.314Z,0.90
2018-08-20T01:45:13.741Z,1.60
2018-08-20T01:48:17.952Z,1.60
2018-08-20T01:51:21.844Z,1.53
2018-08-20T01:54:25.713Z,1.70
2018-08-20T01:57:29.796Z,1.37
2018-08-20T02:00:33.693Z,1.60
2018-08-20T02:03:37.584Z,1.10
2018-08-20T02:06:41.798Z,1.33
2018-08-20T02:09:45.909Z,1.87
2018-08-20T02:12:49.799Z,1.30
2018-08-20T02:15:54.017Z,1.60
2018-08-20T02:18:57.887Z,1.40
2018-08-20T02:22:02.109Z,1.53
2018-08-20T02:25:06.066Z,1.53
2018-08-20T02:28:10.273Z,1.27
2018-08-20T02:31:14.173Z,1.23
2018-08-20T02:34:18.258Z,1.50
2018-08-20T02:37:22.141Z,1.30
2018-08-20T02:40:26.233Z,1.63
2018-08-20T02:43:30.309Z,1.27
2018-08-20T02:46:44.673Z,1.50
2018-08-20T02:49:48.545Z,1.83
2018-08-20T02:52:52.453Z,1.10
2018-08-20T02:55:56.681Z,1.00
2018-08-20T02:59:00.569Z,1.90
2018-08-20T03:02:04.494Z,1.47
2018-08-20T03:05:09.969Z,0.83
2018-08-20T03:08:13.849Z,1.67
2018-08-20T03:11:17.734Z,1.10
2018-08-20T03:14:21.616Z,1.07
2018-08-20T03:17:25.556Z,0.70
2018-08-20T03:20:29.837Z,1.20
2018-08-20T03:23:33.732Z,1.07
2018-08-20T03:26:37.619Z,1.20
2018-08-20T03:29:41.497Z,1.13
2018-08-20T03:32:45.417Z,1.00
2018-08-20T03:35:49.713Z,1.37
2018-08-20T03:38:53.580Z,1.50
2018-08-20T03:41:57.485Z,1.10
2018-08-20T03:45:01.705Z,1.03
2018-08-20T03:48:05.883Z,1.43
2018-08-20T03:51:10.358Z,1.60
2018-08-20T03:54:14.421Z,1.50
2018-08-20T03:57:18.533Z,1.20
2018-08-20T04:00:24.820Z,1.53
2018-08-20T04:03:28.692Z,1.77
2018-08-20T04:06:32.581Z,1.43
2018-08-20T04:09:36.489Z,1.03
2018-08-20T04:12:40.369Z,1.80
2018-08-20T04:15:44.245Z,1.20
2018-08-20T04:18:48.469Z,1.33
2018-08-20T04:21:52.685Z,1.80
2018-08-20T04:24:56.579Z,1.87
2018-08-20T04:28:00.706Z,1.10
2018-08-20T04:31:04.794Z,1.00
2018-08-20T04:34:08.690Z,1.37
2018-08-20T04:37:12.564Z,1.30
2018-08-20T04:40:16.444Z,1.73
2018-08-20T04:43:20.314Z,1.53
2018-08-20T04:46:24.542Z,1.70
2018-08-20T04:49:28.752Z,1.53
2018-08-20T04:52:32.638Z,1.57
2018-08-20T04:55:36.537Z,1.50
2018-08-20T04:58:40.778Z,1.60
2018-08-20T05:01:44.852Z,1.77
2018-08-20T05:04:48.736Z,1.50
2018-08-20T05:07:52.622Z,1.33
2018-08-20T05:10:56.820Z,1.20
2018-08-20T05:14:01.016Z,0.77
2018-08-20T05:17:05.317Z,1.50
2018-08-20T05:20:10.109Z,1.87
2018-08-20T05:23:14.577Z,1.30
2018-08-20T05:26:19.068Z,1.40
2018-08-20T05:29:23.233Z,1.63
2018-08-20T05:32:27.313Z,1.40
2018-08-20T05:35:31.212Z,0.87
2018-08-20T05:38:35.425Z,1.07
2018-08-20T05:41:39.320Z,1.07
2018-08-20T05:44:43.512Z,1.80
2018-08-20T05:47:47.532Z,1.33
2018-08-20T05:50:51.420Z,1.20
2018-08-20T05:53:55.298Z,1.00
2018-08-20T05:56:59.179Z,1.23
2018-08-20T06:00:03.590Z,0.67
2018-08-20T06:03:07.496Z,0.70
2018-08-20T06:06:11.366Z,0.90
2018-08-20T06:09:15.789Z,1.30
2018-08-20T06:12:20.009Z,0.70
2018-08-20T06:15:24.326Z,0.40
2018-08-20T06:18:28.297Z,0.40
2018-08-20T06:21:32.856Z,0.50
2018-08-20T06:24:36.736Z,0.50
2018-08-20T06:27:41.397Z,0.60
2018-08-20T06:30:45.341Z,0.50
2018-08-20T06:33:49.227Z,0.30
2018-08-20T06:36:53.110Z,0.60
2018-08-20T06:39:56.979Z,0.50
2018-08-20T06:43:00.869Z,0.50
2018-08-20T06:46:04.994Z,0.40
2018-08-20T06:49:09.616Z,0.40
2018-08-20T06:52:13.856Z,0.40
2018-08-20T06:55:17.980Z,0.77
2018-08-20T06:58:22.205Z,0.50
2018-08-20T07:01:26.072Z,0.43
2018-08-20T07:04:30.285Z,0.40
2018-08-20T07:07:34.685Z,0.50
2018-08-20T07:10:44.053Z,0.60
2018-08-20T07:13:48.298Z,0.67
2018-08-20T07:16:52.421Z,0.40
2018-08-20T07:19:56.533Z,0.40
2018-08-20T07:23:00.672Z,0.30
2018-08-20T07:26:04.745Z,0.60
2018-08-20T07:29:08.967Z,0.40
2018-08-20T07:32:15.090Z,0.40
2018-08-20T07:35:19.311Z,0.50
2018-08-20T07:38:23.762Z,0.63
2018-08-20T07:41:27.633Z,0.37
2018-08-20T07:44:31.593Z,0.40
2018-08-20T07:47:35.998Z,0.60
2018-08-20T07:50:40.222Z,0.33
2018-08-20T07:53:44.118Z,0.50
2018-08-20T07:56:48.558Z,0.60
2018-08-20T07:59:52.764Z,0.60
2018-08-20T08:02:57.000Z,0.40
2018-08-20T08:06:02.789Z,0.43
2018-08-20T08:09:07.925Z,0.50
2018-08-20T08:12:11.819Z,0.50
2018-08-20T08:15:16.357Z,0.33
2018-08-20T08:18:20.442Z,0.30
2018-08-20T08:21:24.568Z,0.30
2018-08-20T08:24:28.733Z,0.50
2018-08-20T08:27:32.764Z,0.47
2018-08-20T08:30:36.837Z,0.30
2018-08-20T08:33:40.938Z,0.40
2018-08-20T08:36:45.145Z,0.40
2018-08-20T08:39:49.361Z,0.30
2018-08-20T08:42:53.260Z,0.40
2018-08-20T08:45:57.143Z,0.30
2018-08-20T08:49:01.029Z,0.53
2018-08-20T08:52:05.004Z,0.30
2018-08-20T08:55:09.831Z,0.50
2018-08-20T08:58:13.877Z,0.30
2018-08-20T09:01:17.756Z,0.40
2018-08-20T09:04:21.644Z,0.37
2018-08-20T09:07:26.088Z,0.50
2018-08-20T09:10:30.320Z,0.40
2018-08-20T09:13:34.579Z,0.30
2018-08-20T09:16:38.707Z,0.30
2018-08-20T09:19:43.145Z,0.20
2018-08-20T09:22:47.024Z,0.30
2018-08-20T09:25:50.911Z,0.50
2018-08-20T09:28:54.801Z,0.30
2018-08-20T09:31:59.045Z,0.30
2018-08-20T09:35:03.280Z,0.30
2018-08-20T09:38:07.355Z,0.30
2018-08-20T09:41:11.447Z,0.30
2018-08-20T09:44:15.531Z,0.20
2018-08-20T09:47:19.759Z,0.30
2018-08-20T09:50:23.640Z,0.40
2018-08-20T09:53:27.956Z,0.40
2018-08-20T09:56:32.301Z,0.30
2018-08-20T09:59:36.172Z,0.30
2018-08-20T10:02:40.261Z,0.33
2018-08-20T10:05:44.483Z,0.30
2018-08-20T10:08:48.373Z,0.30
2018-08-20T10:11:52.255Z,0.30
2018-08-20T10:14:56.138Z,0.40
2018-08-20T10:18:00.030Z,0.30
2018-08-20T10:21:04.244Z,0.30
2018-08-20T10:24:08.130Z,0.30
2018-08-20T10:27:12.075Z,0.30
2018-08-20T10:30:16.004Z,0.30
2018-08-20T10:33:20.416Z,0.30
2018-08-20T10:36:24.498Z,0.30
2018-08-20T10:39:28.384Z,0.30
2018-08-20T10:42:32.614Z,0.27
2018-08-20T10:45:42.110Z,0.30
2018-08-20T10:48:46.005Z,0.30
2018-08-20T10:51:49.922Z,0.30
2018-08-20T10:54:54.041Z,0.30
2018-08-20T10:57:57.940Z,0.30
2018-08-20T11:01:01.838Z,0.30
2018-08-20T11:04:06.104Z,0.33
2018-08-20T11:07:10.174Z,0.33
2018-08-20T11:10:14.177Z,0.30
2018-08-20T11:13:18.792Z,0.30
2018-08-20T11:16:23.021Z,0.30
2018-08-20T11:19:26.917Z,0.30
2018-08-20T11:22:30.801Z,0.30
2018-08-20T11:25:34.689Z,0.30
2018-08-20T11:28:38.922Z,0.30
2018-08-20T11:31:42.806Z,0.30
2018-08-20T11:34:46.905Z,0.30
2018-08-20T11:37:50.790Z,0.30
2018-08-20T11:40:55.005Z,0.30
2018-08-20T11:43:59.248Z,0.30
2018-08-20T11:47:03.673Z,0.40
2018-08-20T11:50:07.915Z,0.37
2018-08-20T11:53:12.137Z,0.50
2018-08-20T11:56:16.029Z,0.30
2018-08-20T11:59:20.130Z,0.40
2018-08-20T12:02:24.023Z,0.30
2018-08-20T12:05:27.885Z,0.30
2018-08-20T12:08:31.765Z,0.50
2018-08-20T12:11:35.642Z,0.30
2018-08-20T12:14:39.525Z,0.50
2018-08-20T12:17:43.533Z,0.33
2018-08-20T12:20:47.743Z,0.40
2018-08-20T12:23:51.617Z,0.43
2018-08-20T12:26:55.709Z,0.47
2018-08-20T12:29:59.605Z,0.40
2018-08-20T12:33:03.497Z,0.40
2018-08-20T12:36:07.375Z,0.40
2018-08-20T12:39:11.259Z,0.37
2018-08-20T12:42:15.154Z,0.40
2018-08-20T12:45:19.029Z,0.47
2018-08-20T12:48:22.922Z,0.40
2018-08-20T12:51:27.183Z,0.40
2018-08-20T12:54:31.058Z,0.40
2018-08-20T12:57:35.219Z,0.30
2018-08-20T13:00:39.132Z,0.40
2018-08-20T13:03:43.188Z,0.43
2018-08-20T13:06:47.074Z,0.30
2018-08-20T13:09:51.293Z,0.50
2018-08-20T13:12:55.200Z,0.40
2018-08-20T13:15:59.559Z,0.40
2018-08-20T13:19:03.600Z,0.40
2018-08-20T13:22:08.255Z,0.40
2018-08-20T13:25:12.133Z,0.50
2018-08-20T13:28:16.360Z,0.30
2018-08-20T13:31:20.248Z,0.40
2018-08-20T13:34:24.387Z,0.30
2018-08-20T13:37:28.269Z,0.40
2018-08-20T13:40:32.402Z,0.60
2018-08-20T13:43:36.544Z,0.60
2018-08-20T13:46:40.765Z,0.30
2018-08-20T13:49:44.843Z,0.50
2018-08-20T13:52:48.720Z,0.30
2018-08-20T13:55:52.609Z,0.50
2018-08-20T13:58:56.511Z,0.30
2018-08-20T14:02:00.422Z,0.50
2018-08-20T14:05:04.470Z,0.37
2018-08-20T14:08:08.688Z,0.40
2018-08-20T14:11:12.569Z,0.30
2018-08-20T14:14:16.668Z,0.30
2018-08-20T14:17:20.549Z,0.30
2018-08-20T14:20:24.685Z,0.30
2018-08-20T14:23:28.576Z,0.30
2018-08-20T14:26:32.636Z,0.37
2018-08-20T14:29:38.591Z,0.40
2018-08-20T14:32:43.072Z,0.30
2018-08-20T14:35:47.153Z,0.50
2018-08-20T14:38:51.291Z,0.50
2018-08-20T14:41:55.704Z,0.30
2018-08-20T14:44:59.788Z,0.40
2018-08-20T14:48:03.910Z,0.30
2018-08-20T14:51:07.985Z,0.30
2018-08-20T14:54:11.883Z,0.30
2018-08-20T14:57:16.104Z,0.40
2018-08-20T15:00:20.214Z,0.30
2018-08-20T15:03:24.428Z,0.30
2018-08-20T15:06:28.321Z,0.30
2018-08-20T15:09:32.269Z,0.40
2018-08-20T15:12:36.333Z,0.30
2018-08-20T15:15:40.346Z,0.40
2018-08-20T15:18:44.332Z,0.30
2018-08-20T15:21:48.709Z,0.30
2018-08-20T15:24:52.594Z,0.93
2018-08-20T15:27:56.506Z,0.30
2018-08-20T15:31:00.384Z,0.40
2018-08-20T15:34:04.618Z,0.30
2018-08-20T15:37:08.500Z,0.40
2018-08-20T15:40:12.693Z,0.30
2018-08-20T15:43:16.569Z,0.30
2018-08-20T15:46:20.557Z,0.30
2018-08-20T15:49:24.594Z,0.40
2018-08-20T15:52:28.464Z,0.30
2018-08-20T15:55:32.466Z,0.43
2018-08-20T15:58:36.351Z,0.30
2018-08-20T16:01:40.228Z,0.30
2018-08-20T16:04:44.664Z,0.40
2018-08-20T16:07:48.569Z,0.30
2018-08-20T16:10:52.682Z,0.37
2018-08-20T16:13:56.771Z,0.53
2018-08-20T16:17:00.666Z,0.40
2018-08-20T16:20:04.766Z,0.60
2018-08-20T16:23:08.972Z,0.30
2018-08-20T16:26:13.223Z,0.30
2018-08-20T16:29:17.113Z,0.30
2018-08-20T16:32:21.470Z,0.30
2018-08-20T16:35:25.683Z,0.30
2018-08-20T16:38:29.559Z,0.30
2018-08-20T16:41:33.428Z,0.30
2018-08-20T16:44:37.649Z,0.40
2018-08-20T16:47:41.593Z,0.50
2018-08-20T16:50:45.666Z,0.30
2018-08-20T16:53:49.876Z,0.40
2018-08-20T16:56:54.000Z,0.30
2018-08-20T16:59:58.218Z,0.40
2018-08-20T17:03:02.705Z,0.43
2018-08-20T17:06:06.629Z,0.40
2018-08-20T17:09:11.224Z,0.37
2018-08-20T17:12:15.092Z,0.43
2018-08-20T17:15:21.177Z,0.30
2018-08-20T17:18:25.505Z,0.43
2018-08-20T17:21:29.380Z,0.43
2018-08-20T17:24:38.295Z,0.40
2018-08-20T17:27:44.850Z,0.30
2018-08-20T17:30:49.338Z,0.40
2018-08-20T17:33:53.236Z,0.83
2018-08-20T17:36:57.462Z,0.30
2018-08-20T17:40:03.845Z,0.40
2018-08-20T17:43:08.313Z,0.30
2018-08-20T17:46:12.550Z,0.57
2018-08-20T17:49:20.614Z,0.47
2018-08-20T17:52:29.793Z,0.30
2018-08-20T17:55:33.924Z,0.37
2018-08-20T17:58:38.138Z,0.47
2018-08-20T18:01:42.216Z,0.30
2018-08-20T18:04:46.624Z,0.30
2018-08-20T18:07:50.710Z,0.50
2018-08-20T18:10:54.940Z,0.30
2018-08-20T18:13:58.825Z,0.37
2018-08-20T18:17:02.750Z,0.30
2018-08-20T18:20:06.805Z,0.47
2018-08-20T18:23:10.694Z,0.50
2018-08-20T18:26:14.772Z,0.30
2018-08-20T18:29:18.652Z,0.30
2018-08-20T18:32:22.869Z,0.30
2018-08-20T18:35:32.797Z,0.40
2018-08-20T18:38:41.528Z,0.30
2018-08-20T18:42:05.416Z,0.30
2018-08-20T18:45:09.295Z,0.33
2018-08-20T18:48:13.381Z,0.30
2018-08-20T18:51:17.602Z,0.67
2018-08-20T18:54:21.489Z,0.30
2018-08-20T18:57:29.245Z,0.40
2018-08-20T19:00:33.136Z,0.30
2018-08-20T19:03:41.148Z,0.30
2018-08-20T19:06:45.012Z,0.50
2018-08-20T19:09:50.456Z,0.37
2018-08-20T19:12:54.424Z,0.30
2018-08-20T19:15:58.303Z,0.60
2018-08-20T19:19:02.185Z,0.37
2018-08-20T19:22:07.430Z,0.57
2018-08-20T19:25:11.317Z,0.47
2018-08-20T19:28:20.600Z,0.33
2018-08-20T19:31:24.502Z,0.30
2018-08-20T19:34:28.381Z,0.40
2018-08-20T19:37:32.260Z,0.53
2018-08-20T19:40:36.153Z,0.33
2018-08-20T19:43:45.501Z,0.30
2018-08-20T19:46:49.389Z,0.37
2018-08-20T19:49:53.599Z,0.50
2018-08-20T19:52:57.884Z,0.40
2018-08-20T19:56:02.291Z,0.33
2018-08-20T19:59:06.263Z,0.30
2018-08-20T20:02:11.421Z,0.30
2018-08-20T20:05:15.826Z,0.40
2018-08-20T20:08:19.697Z,0.30
2018-08-20T20:11:27.972Z,0.47
2018-08-20T20:14:37.529Z,0.43
2018-08-20T20:17:41.790Z,0.30
2018-08-20T20:20:46.151Z,0.30
2018-08-20T20:23:53.936Z,0.60
2018-08-20T20:26:59.353Z,0.40
2018-08-20T20:30:03.240Z,0.30
2018-08-20T20:33:07.449Z,0.30
2018-08-20T20:36:16.862Z,0.30
2018-08-20T20:39:21.150Z,0.47
2018-08-20T20:42:25.500Z,0.50
2018-08-20T20:45:29.674Z,0.50
2018-08-20T20:48:33.887Z,0.50
2018-08-20T20:51:38.110Z,0.20
2018-08-20T20:54:42.313Z,0.33
2018-08-20T20:57:46.715Z,0.40
2018-08-20T21:00:50.582Z,0.30
2018-08-20T21:03:54.562Z,0.30
2018-08-20T21:06:58.655Z,0.57
2018-08-20T21:10:02.748Z,0.30
2018-08-20T21:13:06.829Z,0.30
2018-08-20T21:16:11.921Z,0.30
2018-08-20T21:19:16.037Z,0.33
2018-08-20T21:22:19.920Z,0.43
2018-08-20T21:25:24.154Z,0.30
2018-08-20T21:28:50.436Z,0.30
2018-08-20T21:31:54.656Z,0.30
2018-08-20T21:34:58.541Z,0.30
2018-08-20T21:38:02.952Z,0.30
2018-08-20T21:41:07.273Z,0.30
2018-08-20T21:44:11.441Z,0.40
2018-08-20T21:47:22.998Z,0.30
2018-08-20T21:50:26.862Z,0.40
2018-08-20T21:53:36.205Z,0.30
2018-08-20T21:56:49.673Z,0.30
2018-08-20T22:00:11.195Z,0.40
2018-08-20T22:03:15.886Z,0.33
2018-08-20T22:06:19.787Z,0.30
2018-08-20T22:09:23.671Z,0.40
2018-08-20T22:12:28.148Z,0.30
2018-08-20T22:15:32.037Z,0.30
2018-08-20T22:18:38.169Z,0.30
2018-08-20T22:21:42.060Z,0.30
2018-08-20T22:24:49.668Z,0.40
2018-08-20T22:27:54.427Z,0.30
2018-08-20T22:30:58.546Z,0.30
2018-08-20T22:34:06.234Z,0.40
2018-08-20T22:37:10.125Z,0.30
2018-08-20T22:40:13.993Z,0.37
2018-08-20T22:43:17.878Z,0.33
2018-08-20T22:46:22.594Z,0.40
2018-08-20T22:49:26.478Z,0.30
2018-08-20T22:52:30.349Z,0.40
2018-08-20T22:55:34.565Z,0.30
2018-08-20T22:58:38.701Z,0.40
2018-08-20T23:01:43.176Z,0.40
2018-08-20T23:04:51.217Z,0.57
2018-08-20T23:07:55.097Z,0.30
2018-08-20T23:10:59.194Z,0.40
2018-08-20T23:14:03.613Z,0.50
2018-08-20T23:17:07.739Z,0.30
2018-08-20T23:20:18.875Z,0.30
2018-08-20T23:23:37.324Z,0.40
2018-08-20T23:26:41.530Z,0.43
2018-08-20T23:29:45.458Z,0.30
2018-08-20T23:32:49.421Z,0.53
2018-08-20T23:35:53.639Z,0.30
2018-08-20T23:38:57.517Z,0.50
2018-08-20T23:42:01.726Z,0.30
2018-08-20T23:45:05.889Z,0.37
2018-08-20T23:48:10.335Z,0.40
2018-08-20T23:51:14.209Z,0.30
2018-08-20T23:54:18.662Z,0.30
2018-08-20T23:57:22.941Z,0.40
